Time;durP1;ratioP1;P1;durP2;ratioP2;P2;SDS_P1;SDS_P2;PMS_P1;PMS_P2;Temp;Humidity;BMP_temperature;BMP_pressure;BME280_temperature;BME280_humidity;BME280_pressure;Samples;Min_cycle;Max_cycle;Signal;HPM_P1;HPM_P2
2021/05/24 00:02:17;;;;;;;1.60;1.50;;;9.60;59.30;;;;;;5044387;28;20211;-80
2021/05/24 00:04:44;;;;;;;2.05;1.60;;;9.70;58.50;;;;;;5040630;28;20219;-79
2021/05/24 00:07:11;;;;;;;1.10;1.10;;;9.60;56.90;;;;;;5040147;28;20501;-79
2021/05/24 00:09:39;;;;;;;2.78;1.60;;;9.80;53.90;;;;;;5038798;28;20582;-79
2021/05/24 00:12:06;;;;;;;3.30;1.60;;;9.80;54.00;;;;;;5041403;28;20254;-78
2021/05/24 00:14:35;;;;;;;2.90;1.45;;;9.90;52.80;;;;;;5042120;28;20202;-80
2021/05/24 00:17:02;;;;;;;1.75;1.60;;;10.00;50.40;;;;;;5043998;28;20211;-79
2021/05/24 00:19:28;;;;;;;1.23;0.90;;;10.10;47.60;;;;;;5049062;28;20222;-80
2021/05/24 00:21:55;;;;;;;4.30;1.27;;;10.20;46.00;;;;;;5056061;28;20214;-80
2021/05/24 00:24:21;;;;;;;1.02;0.98;;;10.30;45.20;;;;;;5050747;28;20226;-81
2021/05/24 00:26:49;;;;;;;2.67;1.33;;;10.40;44.80;;;;;;5056692;28;20223;-78
2021/05/24 00:29:19;;;;;;;1.20;1.10;;;10.50;44.80;;;;;;5053399;28;20207;-77
2021/05/24 00:31:45;;;;;;;3.55;0.93;;;10.40;44.80;;;;;;5043108;28;20246;-81
2021/05/24 00:34:12;;;;;;;1.50;1.20;;;10.40;44.90;;;;;;5038686;28;20252;-80
2021/05/24 00:36:38;;;;;;;1.23;0.82;;;10.30;45.20;;;;;;5037935;28;20239;-81
2021/05/24 00:39:07;;;;;;;2.65;1.30;;;10.30;45.50;;;;;;5038460;28;20239;-80
2021/05/24 00:41:37;;;;;;;1.65;1.10;;;10.20;45.60;;;;;;5038389;28;20732;-80
2021/05/24 00:44:06;;;;;;;1.30;1.20;;;10.20;45.80;;;;;;5039859;28;20211;-79
2021/05/24 00:46:33;;;;;;;1.63;0.98;;;10.10;46.10;;;;;;5038861;28;20250;-78
2021/05/24 00:49:00;;;;;;;1.65;0.95;;;10.10;46.10;;;;;;5040641;28;20206;-78
2021/05/24 00:51:26;;;;;;;1.45;1.20;;;10.20;45.80;;;;;;5038134;28;20215;-79
2021/05/24 00:53:55;;;;;;;2.40;1.10;;;10.20;46.80;;;;;;5036646;28;20667;-80
2021/05/24 00:56:22;;;;;;;1.63;1.10;;;10.10;46.30;;;;;;5043454;28;20251;-79
2021/05/24 00:58:49;;;;;;;1.45;1.00;;;10.10;45.90;;;;;;5052317;28;20191;-77
2021/05/24 01:01:16;;;;;;;2.40;1.10;;;10.10;46.80;;;;;;5057272;28;20241;-79
2021/05/24 01:03:43;;;;;;;3.67;1.10;;;10.10;46.40;;;;;;5057429;28;20199;-79
2021/05/24 01:06:09;;;;;;;2.25;1.40;;;10.00;45.70;;;;;;5053117;28;20230;-79
2021/05/24 01:08:36;;;;;;;2.05;1.05;;;10.10;45.80;;;;;;5043019;28;20268;-79
2021/05/24 01:11:03;;;;;;;2.28;1.00;;;10.00;45.80;;;;;;5043663;28;20455;-78
2021/05/24 01:13:30;;;;;;;2.58;1.48;;;10.00;46.00;;;;;;5049641;28;20211;-80
2021/05/24 01:15:56;;;;;;;3.15;1.08;;;9.90;47.80;;;;;;5050763;28;20231;-79
2021/05/24 01:18:23;;;;;;;1.30;1.15;;;9.90;46.90;;;;;;5048707;28;20473;-79
2021/05/24 01:20:50;;;;;;;3.25;1.40;;;9.80;47.20;;;;;;5047863;28;20207;-79
2021/05/24 01:23:20;;;;;;;2.00;1.10;;;9.80;47.50;;;;;;5043102;28;20203;-80
2021/05/24 01:25:49;;;;;;;1.10;1.00;;;9.80;47.80;;;;;;5043656;28;20223;-79
2021/05/24 01:28:17;;;;;;;3.75;1.35;;;9.70;48.10;;;;;;5041853;28;20226;-79
2021/05/24 01:30:45;;;;;;;0.98;0.98;;;9.70;48.30;;;;;;5038221;28;20199;-79
2021/05/24 01:33:12;;;;;;;2.63;1.30;;;9.70;48.10;;;;;;5037827;28;20243;-80
2021/05/24 01:35:40;;;;;;;1.13;1.10;;;9.70;48.30;;;;;;5038944;28;20235;-78
2021/05/24 01:38:09;;;;;;;1.50;1.40;;;9.60;48.60;;;;;;5035690;28;20247;-77
2021/05/24 01:40:37;;;;;;;1.50;1.40;;;9.60;49.00;;;;;;5035472;28;20218;-79
2021/05/24 01:43:04;;;;;;;4.15;1.13;;;9.50;49.80;;;;;;5036879;28;20234;-78
2021/05/24 01:45:31;;;;;;;1.10;1.00;;;9.40;49.70;;;;;;5055466;28;20210;-83
2021/05/24 01:47:58;;;;;;;1.73;1.23;;;9.40;49.70;;;;;;5052032;28;20207;-79
2021/05/24 01:50:24;;;;;;;1.55;1.10;;;9.40;49.70;;;;;;5055843;28;20191;-82
2021/05/24 01:52:52;;;;;;;1.58;1.20;;;9.30;49.60;;;;;;5057270;28;20193;-82
2021/05/24 01:55:19;;;;;;;2.60;1.35;;;9.30;49.60;;;;;;5057240;28;20215;-83
2021/05/24 01:57:46;;;;;;;2.17;1.42;;;9.30;49.60;;;;;;5056639;28;20203;-82
2021/05/24 02:00:15;;;;;;;1.33;1.23;;;9.30;49.60;;;;;;5057096;28;20236;-83
2021/05/24 02:02:41;;;;;;;1.73;1.23;;;9.20;49.80;;;;;;5055132;28;20203;-80
2021/05/24 02:05:09;;;;;;;1.30;1.20;;;9.20;49.50;;;;;;5046615;28;20219;-80
2021/05/24 02:07:36;;;;;;;5.20;1.30;;;9.20;49.50;;;;;;5045686;28;20553;-78
2021/05/24 02:10:04;;;;;;;1.40;1.30;;;9.20;49.50;;;;;;5050410;28;20207;-82
2021/05/24 02:12:31;;;;;;;1.50;0.82;;;9.20;49.50;;;;;;5049911;28;20233;-78
2021/05/24 02:14:58;;;;;;;1.63;1.20;;;9.20;49.50;;;;;;5049136;28;20235;-77
2021/05/24 02:17:25;;;;;;;1.35;1.25;;;9.20;49.50;;;;;;5048630;28;20206;-81
2021/05/24 02:19:53;;;;;;;9.68;2.15;;;9.10;49.90;;;;;;5050487;28;20203;-79
2021/05/24 02:22:20;;;;;;;1.45;1.20;;;9.10;50.80;;;;;;5040101;28;20264;-78
2021/05/24 02:24:46;;;;;;;1.17;1.08;;;9.00;51.50;;;;;;5042523;28;20239;-78
2021/05/24 02:27:13;;;;;;;5.18;1.60;;;8.90;52.80;;;;;;5049446;28;20262;-82
2021/05/24 02:29:40;;;;;;;1.75;1.20;;;8.90;54.00;;;;;;5051008;28;20211;-79
2021/05/24 02:32:08;;;;;;;1.80;1.50;;;8.90;55.00;;;;;;5051328;28;20271;-81
2021/05/24 02:34:35;;;;;;;2.95;1.30;;;8.80;55.10;;;;;;5051629;28;20699;-79
2021/05/24 02:37:01;;;;;;;1.20;1.10;;;8.80;55.50;;;;;;5044878;28;20211;-81
2021/05/24 02:39:28;;;;;;;1.48;1.20;;;8.80;55.90;;;;;;5045358;28;20567;-77
2021/05/24 02:41:54;;;;;;;1.95;1.55;;;8.70;56.40;;;;;;5037304;28;20227;-79
2021/05/24 02:44:21;;;;;;;2.22;1.02;;;8.60;57.10;;;;;;5042085;28;20211;-80
2021/05/24 02:46:47;;;;;;;2.38;1.20;;;8.60;58.40;;;;;;5038782;28;20226;-77
2021/05/24 02:49:15;;;;;;;1.48;1.38;;;8.60;58.40;;;;;;5039875;28;20215;-77
2021/05/24 02:51:42;;;;;;;1.55;1.40;;;8.50;58.40;;;;;;5047215;28;20237;-82
2021/05/24 02:54:09;;;;;;;2.60;1.55;;;8.50;59.90;;;;;;5051666;28;20269;-78
2021/05/24 02:56:36;;;;;;;1.60;1.50;;;8.40;61.20;;;;;;5040983;28;20239;-80
2021/05/24 02:59:03;;;;;;;1.85;1.30;;;8.40;61.70;;;;;;5051780;28;20187;-82
2021/05/24 03:01:31;;;;;;;1.10;1.10;;;8.40;62.20;;;;;;5047847;28;20203;-78
2021/05/24 03:04:00;;;;;;;3.67;1.63;;;8.40;63.00;;;;;;5042068;28;20207;-80
2021/05/24 03:06:28;;;;;;;1.65;1.55;;;8.40;62.70;;;;;;5053005;28;20279;-78
2021/05/24 03:08:54;;;;;;;3.50;1.55;;;8.40;63.00;;;;;;5055073;28;20207;-81
2021/05/24 03:11:22;;;;;;;2.53;1.08;;;8.40;63.20;;;;;;5053806;28;20296;-77
2021/05/24 03:13:49;;;;;;;1.45;1.30;;;8.40;63.30;;;;;;5034043;28;20223;-78
2021/05/24 03:16:16;;;;;;;2.35;1.52;;;8.40;63.40;;;;;;5034397;28;20242;-80
2021/05/24 03:18:42;;;;;;;2.13;1.27;;;8.40;63.70;;;;;;5039276;28;20231;-77
2021/05/24 03:21:09;;;;;;;2.33;1.38;;;8.30;63.80;;;;;;5039089;28;20624;-78
2021/05/24 03:23:36;;;;;;;1.70;1.60;;;8.40;64.30;;;;;;5043901;28;20234;-79
2021/05/24 03:26:03;;;;;;;1.40;1.17;;;8.30;64.50;;;;;;5043257;28;20596;-79
2021/05/24 03:28:30;;;;;;;3.50;1.65;;;8.30;64.40;;;;;;5035736;28;20675;-78
2021/05/24 03:30:57;;;;;;;1.58;1.05;;;8.40;64.30;;;;;;5040976;28;20199;-78
2021/05/24 03:33:23;;;;;;;1.27;1.25;;;8.40;62.80;;;;;;5040153;28;20234;-77
2021/05/24 03:35:50;;;;;;;1.40;1.30;;;8.50;62.60;;;;;;5046379;28;20446;-79
2021/05/24 03:38:16;;;;;;;1.05;0.90;;;8.60;62.10;;;;;;5058151;28;20218;-78
2021/05/24 03:40:44;;;;;;;2.15;1.10;;;8.60;61.20;;;;;;5053670;28;20238;-79
2021/05/24 03:43:10;;;;;;;4.60;1.40;;;8.50;60.30;;;;;;5039333;28;20211;-80
2021/05/24 03:45:39;;;;;;;1.75;1.10;;;8.50;60.60;;;;;;5039460;28;20322;-79
2021/05/24 03:48:06;;;;;;;1.75;1.40;;;8.50;60.30;;;;;;5044860;28;20274;-80
2021/05/24 03:50:33;;;;;;;2.00;1.30;;;8.50;61.10;;;;;;5051356;28;20198;-80
2021/05/24 03:52:59;;;;;;;2.65;1.65;;;8.50;61.80;;;;;;5053804;28;20211;-79
2021/05/24 03:55:26;;;;;;;1.40;1.30;;;8.50;62.10;;;;;;5054251;28;20231;-78
2021/05/24 03:57:54;;;;;;;1.70;1.60;;;8.50;61.90;;;;;;5055031;28;20211;-79
2021/05/24 04:00:21;;;;;;;1.95;1.40;;;8.60;62.10;;;;;;5049666;28;20258;-79
2021/05/24 04:02:48;;;;;;;1.25;1.15;;;8.60;62.00;;;;;;5037695;28;20199;-77
2021/05/24 04:05:18;;;;;;;2.25;1.50;;;8.70;62.40;;;;;;5036496;28;20231;-77
2021/05/24 04:07:49;;;;;;;2.20;1.20;;;8.80;62.60;;;;;;5054073;28;20256;-83
2021/05/24 04:10:18;;;;;;;2.17;1.85;;;8.80;62.50;;;;;;5050606;28;20214;-78
2021/05/24 04:12:44;;;;;;;2.53;1.40;;;8.80;63.10;;;;;;5058056;28;20187;-78
2021/05/24 04:15:14;;;;;;;1.88;1.67;;;8.90;63.20;;;;;;5056863;28;20234;-77
2021/05/24 04:17:41;;;;;;;3.92;1.80;;;8.90;62.50;;;;;;5036848;28;20226;-78
2021/05/24 04:20:11;;;;;;;1.73;1.63;;;8.90;62.70;;;;;;5035553;28;20211;-78
2021/05/24 04:22:38;;;;;;;2.25;1.67;;;8.90;62.60;;;;;;5040063;28;20207;-78
2021/05/24 04:25:05;;;;;;;1.42;1.30;;;8.90;62.30;;;;;;5039409;28;20242;-78
2021/05/24 04:27:32;;;;;;;1.50;1.40;;;9.00;61.90;;;;;;5038794;28;20322;-78
2021/05/24 04:29:58;;;;;;;1.75;1.45;;;9.10;61.50;;;;;;5039217;28;20326;-78
2021/05/24 04:32:26;;;;;;;1.42;1.38;;;9.10;60.50;;;;;;5039179;28;20332;-80
2021/05/24 04:34:53;;;;;;;2.08;1.40;;;9.20;59.30;;;;;;5042630;28;20230;-78
2021/05/24 04:37:19;;;;;;;1.65;1.35;;;9.20;58.80;;;;;;5043688;28;20203;-80
2021/05/24 04:39:45;;;;;;;1.88;1.30;;;9.30;58.00;;;;;;5039549;28;20672;-78
2021/05/24 04:42:12;;;;;;;1.77;1.30;;;9.30;57.70;;;;;;5036573;28;20707;-80
2021/05/24 04:44:39;;;;;;;2.25;1.48;;;9.40;58.00;;;;;;5037969;28;20314;-79
2021/05/24 04:47:07;;;;;;;1.60;1.45;;;9.40;59.20;;;;;;5039899;28;20255;-81
2021/05/24 04:49:34;;;;;;;3.13;1.70;;;9.50;59.20;;;;;;5041058;28;20207;-79
2021/05/24 04:52:02;;;;;;;1.88;1.52;;;9.50;59.20;;;;;;5037429;28;20243;-78
2021/05/24 04:54:28;;;;;;;2.35;2.00;;;9.60;59.30;;;;;;5037413;28;20741;-78
2021/05/24 04:56:55;;;;;;;5.97;1.60;;;9.70;59.40;;;;;;5035501;28;20199;-77
2021/05/24 04:59:22;;;;;;;4.38;2.05;;;9.80;59.50;;;;;;5033787;28;20211;-77
2021/05/24 05:01:48;;;;;;;3.92;1.20;;;9.70;59.40;;;;;;5034189;28;20230;-79
2021/05/24 05:04:15;;;;;;;2.33;1.70;;;9.80;59.50;;;;;;5034805;28;20291;-78
2021/05/24 05:06:42;;;;;;;1.88;1.38;;;9.70;59.40;;;;;;5035406;28;20223;-79
2021/05/24 05:09:09;;;;;;;2.53;1.75;;;9.80;59.50;;;;;;5039910;28;20679;-80
2021/05/24 05:11:35;;;;;;;2.00;1.90;;;9.80;59.50;;;;;;5038609;28;20316;-78
2021/05/24 05:14:02;;;;;;;1.60;1.50;;;9.90;58.50;;;;;;5036034;28;20200;-78
2021/05/24 05:16:28;;;;;;;1.42;1.20;;;9.80;57.10;;;;;;5034858;28;20311;-80
2021/05/24 05:18:55;;;;;;;1.35;1.00;;;10.00;55.70;;;;;;5034669;28;20751;-78
2021/05/24 05:21:21;;;;;;;2.33;1.55;;;10.20;55.50;;;;;;5037050;28;20659;-77
2021/05/24 05:23:49;;;;;;;7.45;1.67;;;10.10;54.90;;;;;;5045563;28;20215;-79
2021/05/24 05:26:15;;;;;;;1.45;1.20;;;10.30;54.80;;;;;;5055312;28;20227;-78
2021/05/24 05:28:42;;;;;;;1.52;1.42;;;10.60;54.50;;;;;;5056162;28;20199;-78
2021/05/24 05:31:08;;;;;;;3.53;1.38;;;10.80;53.30;;;;;;5053668;28;20204;-79
2021/05/24 05:33:35;;;;;;;3.22;1.50;;;11.00;52.10;;;;;;5050718;28;20231;-78
2021/05/24 05:36:02;;;;;;;1.83;1.33;;;11.10;51.40;;;;;;5050690;28;20238;-79
2021/05/24 05:38:30;;;;;;;2.53;1.50;;;11.20;51.00;;;;;;5053296;28;20237;-79
2021/05/24 05:40:58;;;;;;;2.33;1.42;;;11.50;50.60;;;;;;5052063;28;20241;-79
2021/05/24 05:43:25;;;;;;;4.93;2.00;;;11.50;50.20;;;;;;5053283;28;20211;-79
2021/05/24 05:45:54;;;;;;;1.63;1.52;;;11.70;49.20;;;;;;5083592;22;20237;-78
2021/05/24 05:48:20;;;;;;;2.70;2.00;;;11.90;48.40;;;;;;5072871;28;20618;-77
2021/05/24 05:50:48;;;;;;;3.05;1.80;;;12.00;48.50;;;;;;5075406;28;20212;-78
2021/05/24 05:53:15;;;;;;;2.55;1.70;;;12.10;47.00;;;;;;5075319;28;20202;-77
2021/05/24 05:55:41;;;;;;;1.73;1.50;;;12.10;47.40;;;;;;5073486;28;20230;-78
2021/05/24 05:58:08;;;;;;;1.90;1.77;;;12.30;47.00;;;;;;5072662;28;20212;-77
2021/05/24 06:00:35;;;;;;;1.77;1.67;;;12.10;47.60;;;;;;5072691;28;20210;-77
2021/05/24 06:03:01;;;;;;;2.00;1.80;;;12.10;47.60;;;;;;5073172;28;20301;-78
2021/05/24 06:05:28;;;;;;;1.80;1.70;;;12.10;48.00;;;;;;5074241;28;20317;-78
2021/05/24 06:07:54;;;;;;;4.47;1.50;;;12.20;47.50;;;;;;5074413;28;20222;-78
2021/05/24 06:10:20;;;;;;;3.05;1.67;;;11.80;49.40;;;;;;5093306;28;20200;-77
2021/05/24 06:12:47;;;;;;;2.20;2.00;;;12.10;48.50;;;;;;5095922;28;20201;-77
2021/05/24 06:15:19;;;;;;;1.65;1.55;;;12.40;47.20;;;;;;5096164;28;20205;-78
2021/05/24 06:17:45;;;;;;;2.63;2.20;;;12.50;45.90;;;;;;5096051;28;20210;-78
2021/05/24 06:20:13;;;;;;;2.20;2.00;;;12.70;45.70;;;;;;5095541;28;20206;-79
2021/05/24 06:22:40;;;;;;;2.40;1.80;;;12.70;45.00;;;;;;5095125;28;20201;-78
2021/05/24 06:25:07;;;;;;;2.47;2.00;;;12.80;45.20;;;;;;5093910;28;20265;-79
2021/05/24 06:27:34;;;;;;;2.20;1.98;;;12.80;44.50;;;;;;5089043;28;20375;-78
2021/05/24 06:30:00;;;;;;;1.73;1.63;;;13.00;44.00;;;;;;5074068;28;20296;-78
2021/05/24 06:32:27;;;;;;;2.10;1.90;;;13.30;42.60;;;;;;5074612;28;20233;-78
2021/05/24 06:34:54;;;;;;;2.35;1.83;;;13.50;42.80;;;;;;5074720;28;20758;-78
2021/05/24 06:37:20;;;;;;;1.92;1.80;;;13.60;42.90;;;;;;5074294;28;20198;-78
2021/05/24 06:39:47;;;;;;;6.18;2.20;;;13.80;41.60;;;;;;5074605;28;20236;-78
2021/05/24 06:42:13;;;;;;;3.55;2.22;;;13.50;42.80;;;;;;5074870;28;20292;-77
2021/05/24 06:44:40;;;;;;;3.20;1.98;;;13.70;43.00;;;;;;5073135;28;20247;-77
2021/05/24 06:47:06;;;;;;;2.35;1.80;;;13.80;41.90;;;;;;5072701;28;20233;-77
2021/05/24 06:49:35;;;;;;;1.83;1.73;;;14.00;41.50;;;;;;5074521;28;20244;-76
2021/05/24 06:52:02;;;;;;;3.40;2.22;;;14.00;41.50;;;;;;5077037;28;20246;-79
2021/05/24 06:54:28;;;;;;;2.80;2.42;;;13.90;40.70;;;;;;5091429;28;20202;-77
2021/05/24 06:56:54;;;;;;;3.38;1.77;;;13.00;42.30;;;;;;5097965;28;20221;-76
2021/05/24 06:59:21;;;;;;;2.58;1.80;;;12.20;44.60;;;;;;5091145;28;20210;-78
2021/05/24 07:01:48;;;;;;;2.00;1.50;;;12.60;44.70;;;;;;5096881;28;20220;-77
2021/05/24 07:04:14;;;;;;;1.63;1.52;;;13.10;42.60;;;;;;5098513;28;20201;-77
2021/05/24 07:06:42;;;;;;;1.83;1.50;;;13.50;42.40;;;;;;5088654;28;20250;-77
2021/05/24 07:09:08;;;;;;;2.10;1.55;;;13.70;41.40;;;;;;5077125;28;20205;-77
2021/05/24 07:11:35;;;;;;;3.78;1.70;;;14.10;40.00;;;;;;5078783;28;20202;-77
2021/05/24 07:14:01;;;;;;;3.20;1.75;;;13.50;41.50;;;;;;5078099;28;20545;-77
2021/05/24 07:16:27;;;;;;;2.10;1.73;;;13.90;40.80;;;;;;5078195;28;20237;-77
2021/05/24 07:18:54;;;;;;;4.68;1.77;;;14.40;39.30;;;;;;5076751;28;20242;-77
2021/05/24 07:21:20;;;;;;;3.97;1.80;;;14.50;38.40;;;;;;5078748;28;20245;-78
2021/05/24 07:23:47;;;;;;;1.63;1.52;;;14.60;38.10;;;;;;5078746;28;20627;-78
2021/05/24 07:26:14;;;;;;;2.67;1.63;;;14.40;37.60;;;;;;5077927;28;20721;-78
2021/05/24 07:28:40;;;;;;;1.50;1.40;;;14.40;37.40;;;;;;5078245;28;20355;-78
2021/05/24 07:31:07;;;;;;;1.45;1.35;;;14.20;37.50;;;;;;5078953;28;20202;-77
2021/05/24 07:33:33;;;;;;;2.80;1.70;;;14.10;37.90;;;;;;5078016;28;20229;-78
2021/05/24 07:36:02;;;;;;;3.08;1.90;;;14.30;37.30;;;;;;5078571;28;20253;-78
2021/05/24 07:38:31;;;;;;;2.83;1.75;;;14.30;37.10;;;;;;5077422;28;20228;-78
2021/05/24 07:40:59;;;;;;;2.13;1.77;;;14.40;37.70;;;;;;5077040;28;20237;-77
2021/05/24 07:43:25;;;;;;;2.65;1.50;;;14.60;37.80;;;;;;5076267;28;20210;-78
2021/05/24 07:45:52;;;;;;;1.73;1.60;;;14.80;35.80;;;;;;5076415;28;20683;-78
2021/05/24 07:48:18;;;;;;;1.85;1.60;;;14.80;35.90;;;;;;5076457;28;20205;-78
2021/05/24 07:50:45;;;;;;;2.75;1.83;;;14.90;35.70;;;;;;5077451;28;20248;-78
2021/05/24 07:53:11;;;;;;;2.88;1.52;;;15.10;35.40;;;;;;5078186;28;20214;-77
2021/05/24 07:55:38;;;;;;;4.40;1.48;;;15.10;34.20;;;;;;5077504;28;20278;-79
2021/05/24 07:58:05;;;;;;;2.00;1.48;;;15.00;34.10;;;;;;5076551;28;20234;-77
2021/05/24 08:00:32;;;;;;;1.77;1.20;;;14.90;34.00;;;;;;5077415;28;20225;-79
2021/05/24 08:02:58;;;;;;;1.60;1.40;;;15.00;34.10;;;;;;5076950;28;20452;-79
2021/05/24 08:05:25;;;;;;;2.00;1.30;;;15.10;34.20;;;;;;5080655;28;21038;-77
2021/05/24 08:07:52;;;;;;;3.15;1.77;;;15.30;34.40;;;;;;5079155;28;20570;-77
2021/05/24 08:10:19;;;;;;;5.23;1.43;;;15.30;34.40;;;;;;5079061;28;20642;-78
2021/05/24 08:12:46;;;;;;;3.57;1.50;;;15.70;34.80;;;;;;5085237;28;20521;-78
2021/05/24 08:15:22;;;;;;;6.73;1.60;;;15.90;32.60;;;;;;5095971;28;20450;-79
2021/05/24 08:17:49;;;;;;;5.87;1.57;;;16.00;32.60;;;;;;5079411;28;20418;-77
2021/05/24 08:20:15;;;;;;;1.90;1.40;;;16.00;33.10;;;;;;5075185;28;20434;-78
2021/05/24 08:22:42;;;;;;;2.47;1.40;;;16.10;32.40;;;;;;5075373;28;20458;-77
2021/05/24 08:25:10;;;;;;;5.50;1.77;;;16.20;32.50;;;;;;5075304;28;20450;-78
2021/05/24 08:27:37;;;;;;;1.30;1.20;;;16.20;32.50;;;;;;5073865;28;20553;-77
2021/05/24 08:30:05;;;;;;;1.73;1.17;;;16.30;31.90;;;;;;5074858;28;20430;-79
2021/05/24 08:32:32;;;;;;;1.83;1.20;;;16.30;31.30;;;;;;5076525;28;20454;-77
2021/05/24 08:34:58;;;;;;;4.43;1.67;;;16.20;31.80;;;;;;5075622;28;20456;-78
2021/05/24 08:37:25;;;;;;;1.40;1.30;;;16.30;32.00;;;;;;5075093;28;20717;-77
2021/05/24 08:39:51;;;;;;;1.53;1.43;;;16.30;32.00;;;;;;5080558;28;20444;-77
2021/05/24 08:42:18;;;;;;;1.73;1.63;;;16.40;32.80;;;;;;5078642;28;20469;-79
2021/05/24 08:44:45;;;;;;;3.40;1.50;;;16.50;32.00;;;;;;5080648;28;20848;-79
2021/05/24 08:47:12;;;;;;;1.87;1.40;;;16.60;32.40;;;;;;5076047;28;20459;-78
2021/05/24 08:49:40;;;;;;;2.50;1.40;;;16.80;31.40;;;;;;5076197;28;20510;-77
2021/05/24 08:52:07;;;;;;;5.57;1.63;;;16.80;32.30;;;;;;5078696;28;20483;-78
2021/05/24 08:54:37;;;;;;;1.83;1.40;;;17.00;31.50;;;;;;5084833;28;20479;-78
2021/05/24 08:57:06;;;;;;;1.87;1.50;;;17.20;31.40;;;;;;5093823;28;20464;-77
2021/05/24 08:59:34;;;;;;;2.83;1.20;;;17.40;30.90;;;;;;5091853;28;20808;-79
2021/05/24 09:02:01;;;;;;;3.83;1.70;;;17.70;30.30;;;;;;5082696;28;20454;-78
2021/05/24 09:04:43;;;;;;;2.60;1.60;;;18.00;30.40;;;;;;5077515;28;20423;-77
2021/05/24 09:07:11;;;;;;;2.57;1.30;;;18.20;30.20;;;;;;5079924;28;20484;-76
2021/05/24 09:09:38;;;;;;;2.93;1.23;;;18.50;29.40;;;;;;5084231;28;20432;-77
2021/05/24 09:12:19;;;;;;;2.30;0.93;;;18.70;29.20;;;;;;5095825;28;20445;-77
2021/05/24 09:14:55;;;;;;;4.57;1.07;;;19.10;28.20;;;;;;5095481;28;20438;-79
2021/05/24 09:17:21;;;;;;;1.30;1.10;;;19.30;28.40;;;;;;5091747;28;20429;-77
2021/05/24 09:19:49;;;;;;;1.47;1.17;;;19.70;27.90;;;;;;5093812;28;21062;-77
2021/05/24 09:22:15;;;;;;;1.90;1.27;;;20.00;27.40;;;;;;5080077;28;20740;-77
2021/05/24 09:24:43;;;;;;;3.10;1.10;;;20.40;26.90;;;;;;5075059;28;20467;-78
2021/05/24 09:27:24;;;;;;;1.57;1.20;;;20.60;26.00;;;;;;5076876;28;20467;-79
2021/05/24 09:29:52;;;;;;;3.50;1.33;;;20.60;25.90;;;;;;5075296;28;20463;-78
2021/05/24 09:32:20;;;;;;;1.50;1.00;;;20.60;25.80;;;;;;5076821;28;20430;-78
2021/05/24 09:34:49;;;;;;;1.63;1.23;;;20.60;25.20;;;;;;5074002;28;20455;-77
2021/05/24 09:37:17;;;;;;;4.17;1.43;;;20.40;25.70;;;;;;5073167;28;20501;-77
2021/05/24 09:39:44;;;;;;;1.90;1.10;;;20.80;25.30;;;;;;5073815;28;20456;-78
2021/05/24 09:42:12;;;;;;;1.07;0.90;;;21.00;24.60;;;;;;5074784;28;20431;-78
2021/05/24 09:44:46;;;;;;;1.40;0.90;;;21.30;24.00;;;;;;5074807;28;20534;-78
2021/05/24 09:47:13;;;;;;;2.30;1.10;;;21.30;23.10;;;;;;5073499;28;21014;-77
2021/05/24 09:49:40;;;;;;;1.07;0.90;;;21.10;23.50;;;;;;5074589;28;20451;-77
2021/05/24 09:52:07;;;;;;;1.43;0.97;;;21.10;23.20;;;;;;5075181;28;20593;-77
2021/05/24 09:54:38;;;;;;;2.30;0.80;;;21.10;22.20;;;;;;5078269;28;20888;-78
2021/05/24 09:57:10;;;;;;;1.53;0.77;;;21.10;22.10;;;;;;5080071;28;20930;-78
2021/05/24 09:59:38;;;;;;;2.33;0.70;;;21.10;22.40;;;;;;5083001;28;20447;-77
2021/05/24 10:02:06;;;;;;;0.90;0.80;;;21.10;21.50;;;;;;5086931;28;20418;-78
2021/05/24 10:04:34;;;;;;;2.23;1.30;;;21.30;22.10;;;;;;5092753;28;20435;-79
2021/05/24 10:07:02;;;;;;;0.90;0.70;;;21.60;21.80;;;;;;5086587;28;20524;-78
2021/05/24 10:09:32;;;;;;;0.87;0.83;;;21.60;22.40;;;;;;5076276;28;20635;-77
2021/05/24 10:12:02;;;;;;;2.07;0.70;;;21.60;21.80;;;;;;5077601;28;20926;-77
2021/05/24 10:14:29;;;;;;;2.67;1.00;;;21.60;21.30;;;;;;5082707;28;20983;-78
2021/05/24 10:16:57;;;;;;;0.70;0.70;;;21.70;21.00;;;;;;5084254;28;21042;-78
2021/05/24 10:19:24;;;;;;;2.83;0.87;;;21.70;21.90;;;;;;5078223;28;20427;-77
2021/05/24 10:21:51;;;;;;;2.70;0.77;;;21.90;21.40;;;;;;5073014;28;20434;-77
2021/05/24 10:24:21;;;;;;;1.00;0.80;;;22.10;20.60;;;;;;5074184;28;20439;-77
2021/05/24 10:26:49;;;;;;;0.80;0.80;;;22.40;21.60;;;;;;5091923;28;20510;-78
2021/05/24 10:29:18;;;;;;;1.00;0.90;;;22.70;19.90;;;;;;5096266;28;20461;-78
2021/05/24 10:31:46;;;;;;;1.23;0.97;;;22.60;20.10;;;;;;5084724;28;20520;-79
2021/05/24 10:34:14;;;;;;;1.60;0.80;;;22.50;20.70;;;;;;5075112;28;20491;-78
2021/05/24 10:36:42;;;;;;;2.43;1.10;;;22.30;21.00;;;;;;5073130;28;20499;-78
2021/05/24 10:39:19;;;;;;;1.27;0.83;;;22.60;20.40;;;;;;5072529;28;20436;-79
2021/05/24 10:41:56;;;;;;;2.17;0.70;;;22.60;20.30;;;;;;5072439;28;20449;-79
2021/05/24 10:44:24;;;;;;;1.47;0.67;;;22.90;20.30;;;;;;5071325;28;21004;-79
2021/05/24 10:46:52;;;;;;;1.30;0.67;;;23.10;20.10;;;;;;5070612;28;20549;-78
2021/05/24 10:49:22;;;;;;;0.73;0.73;;;23.00;18.60;;;;;;5074031;28;20429;-79
2021/05/24 10:52:02;;;;;;;3.57;1.03;;;23.00;19.40;;;;;;5072804;28;20430;-79
2021/05/24 10:54:32;;;;;;;1.60;0.90;;;23.50;19.00;;;;;;5071606;28;20458;-78
2021/05/24 10:57:19;;;;;;;0.63;0.60;;;23.80;18.90;;;;;;5071335;28;20482;-78
2021/05/24 10:59:59;;;;;;;0.73;0.70;;;23.60;19.20;;;;;;5071720;28;20449;-79
2021/05/24 11:02:39;;;;;;;1.47;0.70;;;23.30;18.80;;;;;;5071586;28;20546;-78
2021/05/24 11:05:25;;;;;;;0.80;0.80;;;22.90;18.80;;;;;;5071255;28;20889;-78
2021/05/24 11:07:55;;;;;;;3.93;0.70;;;23.10;19.20;;;;;;5070649;28;20461;-78
2021/05/24 11:10:27;;;;;;;1.20;0.80;;;23.40;18.90;;;;;;5071265;28;20456;-78
2021/05/24 11:12:56;;;;;;;2.60;1.17;;;23.50;19.00;;;;;;5071217;28;20535;-78
2021/05/24 11:15:24;;;;;;;0.60;0.60;;;23.80;19.20;;;;;;5071049;28;20475;-78
2021/05/24 11:18:13;;;;;;;3.03;0.53;;;23.80;18.60;;;;;;5070580;28;20450;-78
2021/05/24 11:20:44;;;;;;;1.13;0.67;;;23.70;18.30;;;;;;5070844;28;20548;-78
2021/05/24 11:23:18;;;;;;;2.27;0.70;;;23.50;18.70;;;;;;5071256;28;20488;-79
2021/05/24 11:25:55;;;;;;;3.53;0.90;;;23.50;18.50;;;;;;5071422;28;20468;-78
2021/05/24 11:28:33;;;;;;;2.67;0.67;;;23.10;18.50;;;;;;5071266;28;20471;-78
2021/05/24 11:31:12;;;;;;;1.33;0.90;;;23.10;18.50;;;;;;5071696;28;20435;-79
2021/05/24 11:33:47;;;;;;;1.27;0.80;;;23.00;18.60;;;;;;5071533;28;20465;-79
2021/05/24 11:36:14;;;;;;;3.93;0.70;;;22.70;18.50;;;;;;5070742;28;20439;-79
2021/05/24 11:38:40;;;;;;;0.80;0.70;;;22.60;17.70;;;;;;5072329;28;20432;-79
2021/05/24 11:41:15;;;;;;;1.13;0.70;;;22.50;17.50;;;;;;5075044;28;20446;-78
2021/05/24 11:43:43;;;;;;;0.87;0.87;;;22.20;18.00;;;;;;5074652;28;20910;-78
2021/05/24 11:46:12;;;;;;;1.43;0.70;;;22.20;18.00;;;;;;5113020;22;20630;-79
2021/05/24 11:48:40;;;;;;;3.60;0.77;;;22.20;18.00;;;;;;5076615;28;20932;-79
2021/05/24 11:51:09;;;;;;;1.90;0.67;;;22.10;18.90;;;;;;5078443;28;20915;-80
2021/05/24 11:53:37;;;;;;;1.73;0.90;;;22.20;18.60;;;;;;5081454;28;20502;-80
2021/05/24 11:56:11;;;;;;;2.30;1.00;;;22.00;18.70;;;;;;5088691;28;20424;-78
2021/05/24 11:58:57;;;;;;;1.30;0.60;;;22.10;18.00;;;;;;5090676;28;20452;-80
2021/05/24 12:01:24;;;;;;;1.00;0.93;;;22.30;19.00;;;;;;5081615;28;20451;-80
2021/05/24 12:03:51;;;;;;;1.33;1.23;;;22.60;17.80;;;;;;5081116;28;20424;-80
2021/05/24 12:06:20;;;;;;;1.40;0.90;;;22.70;18.00;;;;;;5088729;28;20530;-80
2021/05/24 12:08:47;;;;;;;1.00;0.83;;;22.60;18.10;;;;;;5084118;28;20458;-79
2021/05/24 12:11:14;;;;;;;0.97;0.60;;;22.60;17.70;;;;;;5080688;28;20440;-81
2021/05/24 12:14:02;;;;;;;1.50;0.70;;;22.40;17.70;;;;;;5080657;28;20938;-80
2021/05/24 12:16:29;;;;;;;1.23;0.60;;;22.10;18.50;;;;;;5081760;28;20451;-81
2021/05/24 12:19:00;;;;;;;1.20;0.83;;;22.30;18.10;;;;;;5094429;28;20432;-81
2021/05/24 12:21:38;;;;;;;1.30;0.83;;;22.30;17.60;;;;;;5096517;28;20475;-81
2021/05/24 12:24:07;;;;;;;1.53;0.70;;;22.20;17.50;;;;;;5094359;28;20403;-81
2021/05/24 12:26:34;;;;;;;3.20;0.70;;;22.20;17.50;;;;;;5083962;28;20593;-81
2021/05/24 12:29:03;;;;;;;1.50;1.20;;;22.40;17.00;;;;;;5080910;28;20530;-80
2021/05/24 12:31:31;;;;;;;1.03;0.70;;;22.70;16.60;;;;;;5080056;28;20590;-80
2021/05/24 12:34:00;;;;;;;2.63;0.70;;;23.00;15.30;;;;;;5080397;28;20930;-81
2021/05/24 12:36:34;;;;;;;2.40;0.80;;;22.90;14.30;;;;;;5082602;28;20979;-81
2021/05/24 12:39:05;;;;;;;1.57;0.80;;;23.10;14.40;;;;;;5083096;28;20788;-80
2021/05/24 12:41:32;;;;;;;0.93;0.73;;;23.30;14.50;;;;;;5084716;28;20459;-80
2021/05/24 12:44:02;;;;;;;2.30;1.53;;;23.40;14.60;;;;;;5082554;28;21019;-80
2021/05/24 12:46:30;;;;;;;2.80;0.73;;;23.60;14.80;;;;;;5081604;28;20544;-80
2021/05/24 12:48:58;;;;;;;1.13;0.70;;;23.60;14.80;;;;;;5082120;28;20538;-81
2021/05/24 12:51:27;;;;;;;0.87;0.73;;;23.80;14.20;;;;;;5081366;28;20509;-80
2021/05/24 12:53:56;;;;;;;1.77;0.70;;;23.60;13.20;;;;;;5080543;28;20444;-79
2021/05/24 12:56:23;;;;;;;2.23;1.10;;;23.50;13.20;;;;;;5080813;28;20453;-80